createdAt,value
2022-08-05T00:01:36.412Z,4.15
2022-08-05T00:04:18.305Z,3.80
2022-08-05T00:06:47.092Z,3.35
2022-08-05T00:09:15.988Z,3.75
2022-08-05T00:11:49.374Z,3.35
2022-08-05T00:14:27.558Z,3.47
2022-08-05T00:16:57.878Z,3.78
2022-08-05T00:19:33.698Z,4.15
2022-08-05T00:22:12.096Z,4.20
2022-08-05T00:24:42.426Z,3.88
2022-08-05T00:27:35.857Z,4.47
2022-08-05T00:29:58.919Z,4.20
2022-08-05T00:32:30.289Z,4.13
2022-08-05T00:35:06.919Z,4.05
2022-08-05T00:37:52.762Z,4.57
2022-08-05T00:40:27.164Z,4.20
2022-08-05T00:42:58.506Z,4.00
2022-08-05T00:45:37.909Z,4.50
2022-08-05T00:48:11.197Z,4.50
2022-08-05T00:50:44.218Z,5.00
2022-08-05T00:54:00.362Z,4.97
2022-08-05T00:56:00.449Z,5.22
2022-08-05T00:58:28.480Z,4.80
2022-08-05T01:00:56.637Z,5.88
2022-08-05T01:03:33.274Z,4.97
2022-08-05T01:06:05.385Z,5.20
2022-08-05T01:11:22.151Z,4.88
2022-08-05T01:14:08.883Z,5.50
2022-08-05T01:16:41.831Z,5.60
2022-08-05T01:19:21.155Z,5.18
2022-08-05T01:22:27.801Z,5.63
2022-08-05T01:25:40.776Z,5.70
2022-08-05T01:28:24.494Z,5.78
2022-08-05T01:30:55.346Z,5.85
2022-08-05T01:33:26.255Z,5.28
2022-08-05T01:35:57.525Z,5.95
2022-08-05T01:38:30.193Z,5.73
2022-08-05T01:40:59.794Z,6.30
2022-08-05T01:43:32.803Z,5.85
2022-08-05T01:46:07.370Z,5.63
2022-08-05T01:48:49.674Z,5.43
2022-08-05T01:51:18.446Z,5.20
2022-08-05T01:53:57.545Z,5.80
2022-08-05T01:58:09.944Z,5.10
2022-08-05T01:59:22.956Z,5.55
2022-08-05T02:01:54.753Z,5.90
2022-08-05T02:04:25.553Z,5.68
2022-08-05T02:06:53.636Z,5.50
2022-08-05T02:09:21.760Z,5.50
2022-08-05T02:11:58.972Z,5.20
2022-08-05T02:14:32.621Z,5.88
2022-08-05T02:17:05.724Z,6.30
2022-08-05T02:19:47.007Z,5.82
2022-08-05T02:22:26.655Z,5.68
2022-08-05T02:25:00.165Z,5.88
2022-08-05T02:27:30.178Z,5.53
2022-08-05T02:30:18.942Z,5.63
2022-08-05T02:32:48.943Z,5.90
2022-08-05T02:35:27.680Z,5.45
2022-08-05T02:37:59.112Z,5.15
2022-08-05T02:40:28.653Z,6.03
2022-08-05T02:42:57.447Z,5.68
2022-08-05T02:45:28.993Z,5.40
2022-08-05T02:48:17.322Z,5.78
2022-08-05T02:50:47.211Z,5.78
2022-08-05T02:53:18.895Z,5.75
2022-08-05T02:55:54.923Z,6.07
2022-08-05T02:58:28.925Z,5.38
2022-08-05T03:01:02.378Z,6.10
2022-08-05T03:03:34.354Z,5.25
2022-08-05T03:06:54.852Z,5.30
2022-08-05T03:09:08.956Z,5.57
2022-08-05T03:11:54.886Z,4.68
2022-08-05T03:14:26.699Z,5.25
2022-08-05T03:16:56.039Z,5.28
2022-08-05T03:19:33.122Z,4.88
2022-08-05T03:22:02.285Z,5.10
2022-08-05T03:24:33.728Z,5.00
2022-08-05T03:27:03.156Z,5.15
2022-08-05T03:29:45.119Z,5.18
2022-08-05T03:32:30.917Z,6.15
2022-08-05T03:34:59.729Z,5.68
2022-08-05T03:37:28.861Z,5.25
2022-08-05T03:39:59.022Z,4.75
2022-08-05T03:42:32.346Z,5.20
2022-08-05T03:45:01.879Z,5.68
2022-08-05T03:47:50.351Z,4.93
2022-08-05T03:50:18.459Z,5.18
2022-08-05T03:55:00.072Z,5.00
2022-08-05T03:56:04.501Z,5.70
2022-08-05T03:58:33.313Z,5.97
2022-08-05T04:01:04.072Z,5.55
2022-08-05T04:03:37.968Z,5.50
2022-08-05T04:06:08.684Z,5.47
2022-08-05T04:08:37.170Z,5.07
2022-08-05T04:11:07.326Z,4.75
2022-08-05T04:13:51.027Z,5.20
2022-08-05T04:16:25.336Z,5.40
2022-08-05T04:19:01.585Z,5.15
2022-08-05T04:22:09.669Z,5.18
2022-08-05T04:24:19.464Z,5.75
2022-08-05T04:26:50.682Z,5.45
2022-08-05T04:29:19.673Z,4.85
2022-08-05T04:31:48.514Z,5.30
2022-08-05T04:34:33.750Z,5.53
2022-08-05T04:37:04.011Z,5.00
2022-08-05T04:39:35.182Z,4.63
2022-08-05T04:42:04.446Z,4.38
2022-08-05T04:44:32.488Z,4.40
2022-08-05T04:47:08.989Z,4.93
2022-08-05T04:50:03.071Z,4.15
2022-08-05T04:52:28.399Z,4.78
2022-08-05T04:54:56.891Z,4.28
2022-08-05T04:57:28.585Z,4.93
2022-08-05T04:59:58.555Z,4.97
2022-08-05T05:02:41.277Z,4.38
2022-08-05T05:05:16.618Z,4.70
2022-08-05T05:07:56.700Z,4.45
2022-08-05T05:10:29.969Z,4.50
2022-08-05T05:12:58.094Z,4.07
2022-08-05T05:15:57.608Z,4.15
2022-08-05T05:18:28.283Z,4.03
2022-08-05T05:21:00.506Z,4.68
2022-08-05T05:24:01.613Z,4.55
2022-08-05T05:26:16.498Z,4.25
2022-08-05T05:28:45.103Z,4.53
2022-08-05T05:31:13.498Z,4.38
2022-08-05T05:33:59.329Z,4.25
2022-08-05T05:36:29.975Z,4.07
2022-08-05T05:38:58.511Z,4.28
2022-08-05T05:41:40.841Z,4.85
2022-08-05T05:44:36.105Z,4.90
2022-08-05T05:47:04.355Z,4.53
2022-08-05T05:49:35.736Z,4.65
2022-08-05T05:52:06.008Z,4.43
2022-08-05T05:54:50.456Z,4.05
2022-08-05T05:57:19.742Z,3.22
2022-08-05T05:59:48.783Z,3.33
2022-08-05T06:02:32.716Z,3.90
2022-08-05T06:05:10.403Z,3.83
2022-08-05T06:08:01.173Z,3.83
2022-08-05T06:10:36.499Z,3.42
2022-08-05T06:13:05.845Z,4.13
2022-08-05T06:16:30.953Z,3.50
2022-08-05T06:18:21.987Z,3.72
2022-08-05T06:20:59.801Z,3.83
2022-08-05T06:23:43.499Z,4.18
2022-08-05T06:26:20.489Z,4.57
2022-08-05T06:28:51.856Z,3.88
2022-08-05T06:31:21.891Z,4.20
2022-08-05T06:34:05.957Z,3.65
2022-08-05T06:36:37.478Z,3.92
2022-08-05T06:39:24.649Z,4.63
2022-08-05T06:41:55.710Z,3.70
2022-08-05T06:44:25.376Z,3.72
2022-08-05T06:46:54.351Z,3.30
2022-08-05T06:50:00.539Z,3.17
2022-08-05T06:52:36.774Z,2.88
2022-08-05T06:54:59.964Z,4.30
2022-08-05T06:58:03.070Z,3.88
2022-08-05T07:00:24.576Z,3.83
2022-08-05T07:02:53.828Z,3.95
2022-08-05T07:05:37.061Z,3.72
2022-08-05T07:08:06.351Z,4.47
2022-08-05T07:10:52.798Z,4.22
2022-08-05T07:13:57.730Z,3.85
2022-08-05T07:17:56.690Z,4.55
2022-08-05T07:22:28.907Z,5.22
2022-08-05T07:25:21.908Z,5.57
2022-08-05T07:27:58.527Z,5.60
2022-08-05T07:30:33.446Z,5.75
2022-08-05T07:33:05.396Z,5.57
2022-08-05T07:36:04.000Z,4.55
2022-08-05T07:38:32.122Z,5.18
2022-08-05T07:42:07.277Z,5.93
2022-08-05T07:43:56.344Z,5.97
2022-08-05T07:46:26.403Z,7.20
2022-08-05T07:49:01.615Z,6.32
2022-08-05T07:51:40.347Z,6.13
2022-08-05T07:54:10.559Z,5.00
2022-08-05T07:57:01.717Z,4.50
2022-08-05T07:59:38.052Z,5.57
2022-08-05T08:02:15.830Z,4.90
2022-08-05T08:04:49.223Z,5.20
2022-08-05T08:07:22.407Z,4.47
2022-08-05T08:09:54.837Z,4.35
2022-08-05T08:12:35.639Z,4.47
2022-08-05T08:15:13.879Z,5.03
2022-08-05T08:17:44.039Z,4.53
2022-08-05T08:20:44.402Z,4.45
2022-08-05T08:23:07.502Z,4.00
2022-08-05T08:26:02.443Z,4.57
2022-08-05T08:28:36.630Z,4.15
2022-08-05T08:31:07.568Z,4.30
2022-08-05T08:33:37.868Z,4.60
2022-08-05T08:38:56.162Z,4.30
2022-08-05T08:41:52.050Z,5.18
2022-08-05T08:45:22.191Z,4.57
2022-08-05T08:47:47.576Z,4.60
2022-08-05T08:50:23.042Z,4.53
2022-08-05T08:52:43.557Z,4.80
2022-08-05T08:56:01.939Z,4.47
2022-08-05T08:58:08.580Z,4.45
2022-08-05T09:00:36.969Z,5.07
2022-08-05T09:03:07.780Z,4.78
2022-08-05T09:05:38.334Z,5.63
2022-08-05T09:08:27.478Z,7.72
2022-08-05T09:10:58.644Z,4.55
2022-08-05T09:13:31.673Z,4.45
2022-08-05T09:16:17.138Z,4.15
2022-08-05T09:18:46.837Z,4.10
2022-08-05T09:21:20.931Z,4.13
2022-08-05T09:24:04.608Z,4.18
2022-08-05T09:26:35.082Z,4.47
2022-08-05T09:29:08.810Z,4.32
2022-08-05T09:32:40.811Z,4.28
2022-08-05T09:34:27.385Z,4.72
2022-08-05T09:36:59.356Z,4.63
2022-08-05T09:39:44.995Z,4.20
2022-08-05T09:42:22.968Z,4.80
2022-08-05T09:44:56.483Z,5.07
2022-08-05T09:47:36.478Z,5.55
2022-08-05T09:50:37.331Z,5.32
2022-08-05T09:53:07.009Z,5.40
2022-08-05T09:55:56.714Z,6.15
2022-08-05T09:58:26.111Z,6.10
2022-08-05T10:01:01.694Z,5.45
2022-08-05T10:03:58.868Z,5.10
2022-08-05T10:06:29.267Z,5.35
2022-08-05T10:09:24.980Z,5.10
2022-08-05T10:12:30.655Z,5.45
2022-08-05T10:15:16.306Z,4.90
2022-08-05T10:17:56.783Z,4.90
2022-08-05T10:20:26.628Z,5.05
2022-08-05T10:22:57.121Z,4.53
2022-08-05T10:25:26.642Z,4.75
2022-08-05T10:28:13.681Z,4.70
2022-08-05T10:32:48.045Z,4.95
2022-08-05T10:33:34.200Z,4.47
2022-08-05T10:36:05.298Z,4.70
2022-08-05T10:38:36.254Z,4.18
2022-08-05T10:41:10.160Z,4.22
2022-08-05T10:43:49.180Z,4.50
2022-08-05T10:46:24.103Z,3.53
2022-08-05T10:49:02.661Z,4.47
2022-08-05T10:51:48.626Z,3.80
2022-08-05T10:54:55.923Z,3.83
2022-08-05T10:57:30.975Z,3.53
2022-08-05T11:00:14.757Z,3.40
2022-08-05T11:03:24.924Z,3.33
2022-08-05T11:06:16.184Z,2.85
2022-08-05T11:09:16.686Z,2.83
2022-08-05T11:11:53.166Z,2.97
2022-08-05T11:15:19.774Z,3.50
2022-08-05T11:17:58.827Z,3.40
2022-08-05T11:20:38.937Z,2.45
2022-08-05T11:24:05.259Z,2.50
2022-08-05T11:26:28.545Z,2.83
2022-08-05T11:29:11.724Z,3.17
2022-08-05T11:31:53.913Z,3.05
2022-08-05T11:34:38.612Z,2.65
2022-08-05T11:38:30.516Z,2.55
2022-08-05T11:40:00.549Z,2.20
2022-08-05T11:42:40.281Z,2.65
2022-08-05T11:45:14.538Z,2.70
2022-08-05T11:47:55.300Z,2.58
2022-08-05T11:50:23.529Z,2.80
2022-08-05T11:52:57.696Z,2.53
2022-08-05T11:55:31.931Z,2.70
2022-08-05T11:58:10.935Z,2.30
2022-08-05T12:00:44.188Z,2.47
2022-08-05T12:03:29.328Z,2.15
2022-08-05T12:06:01.491Z,2.20
2022-08-05T12:08:31.531Z,2.70
2022-08-05T12:11:06.133Z,2.38
2022-08-05T12:13:49.613Z,2.25
2022-08-05T12:16:25.711Z,2.53
2022-08-05T12:18:55.820Z,2.30
2022-08-05T12:21:26.951Z,2.60
2022-08-05T12:24:03.329Z,2.50
2022-08-05T12:26:34.463Z,2.70
2022-08-05T12:29:03.494Z,2.35
2022-08-05T12:31:46.105Z,2.33
2022-08-05T12:34:20.481Z,2.60
2022-08-05T12:36:53.446Z,2.40
2022-08-05T12:39:23.544Z,2.50
2022-08-05T12:41:58.884Z,2.63
2022-08-05T12:44:33.333Z,2.75
2022-08-05T12:47:03.794Z,2.67
2022-08-05T12:50:04.464Z,2.55
2022-08-05T12:52:39.014Z,2.58
2022-08-05T12:55:22.305Z,2.55
2022-08-05T12:58:49.831Z,2.78
2022-08-05T13:02:01.665Z,2.30
2022-08-05T13:03:33.285Z,2.75
2022-08-05T13:06:02.568Z,2.08
2022-08-05T13:08:32.447Z,2.72
2022-08-05T13:11:01.900Z,2.40
2022-08-05T13:14:05.050Z,3.00
2022-08-05T13:16:20.851Z,3.30
2022-08-05T13:18:57.968Z,2.30
2022-08-05T13:21:27.930Z,2.58
2022-08-05T13:24:09.442Z,2.70
2022-08-05T13:26:41.341Z,2.85
2022-08-05T13:29:37.850Z,2.40
2022-08-05T13:32:06.518Z,2.63
2022-08-05T13:34:36.438Z,2.38
2022-08-05T13:37:09.505Z,2.00
2022-08-05T13:40:15.891Z,2.97
2022-08-05T13:42:28.850Z,2.47
2022-08-05T13:44:57.596Z,2.80
2022-08-05T13:47:35.982Z,2.65
2022-08-05T13:50:17.054Z,3.00
2022-08-05T13:52:45.099Z,2.83
2022-08-05T13:55:41.714Z,2.72
2022-08-05T13:58:05.942Z,2.38
2022-08-05T14:00:36.376Z,2.40
2022-08-05T14:03:04.886Z,2.67
2022-08-05T14:06:04.680Z,3.17
2022-08-05T14:08:27.936Z,2.65
2022-08-05T14:10:59.668Z,2.45
2022-08-05T14:13:32.279Z,2.83
2022-08-05T14:16:08.865Z,3.07
2022-08-05T14:18:39.107Z,3.22
2022-08-05T14:22:07.704Z,3.13
2022-08-05T14:23:56.816Z,3.38
2022-08-05T14:26:36.983Z,3.50
2022-08-05T14:29:16.158Z,3.03
2022-08-05T14:32:02.883Z,3.28
2022-08-05T14:34:35.528Z,3.70
2022-08-05T14:37:05.655Z,3.63
2022-08-05T14:39:50.191Z,3.80
2022-08-05T14:42:22.825Z,3.95
2022-08-05T14:44:53.093Z,3.53
2022-08-05T14:48:02.767Z,4.03
2022-08-05T14:50:17.685Z,3.47
2022-08-05T14:52:58.716Z,3.83
2022-08-05T14:55:38.529Z,3.53
2022-08-05T14:58:11.157Z,3.85
2022-08-05T15:00:58.227Z,3.53
2022-08-05T15:03:33.198Z,3.70
2022-08-05T15:06:08.127Z,4.30
2022-08-05T15:09:01.186Z,3.72
2022-08-05T15:11:50.859Z,3.28
2022-08-05T15:14:34.426Z,3.53
2022-08-05T15:17:05.375Z,3.85
2022-08-05T15:19:38.055Z,4.10
2022-08-05T15:22:08.752Z,3.70
2022-08-05T15:24:39.613Z,4.30
2022-08-05T15:27:09.147Z,3.50
2022-08-05T15:29:42.192Z,3.58
2022-08-05T15:32:10.290Z,3.92
2022-08-05T15:34:38.341Z,4.63
2022-08-05T15:37:14.747Z,3.88
2022-08-05T15:40:58.917Z,3.67
2022-08-05T15:42:55.825Z,3.63
2022-08-05T15:45:38.253Z,4.25
2022-08-05T15:48:07.092Z,4.57
2022-08-05T15:50:35.179Z,3.97
2022-08-05T15:53:05.186Z,4.78
2022-08-05T15:56:02.466Z,4.47
2022-08-05T15:58:23.435Z,4.35
2022-08-05T16:01:11.706Z,4.70
2022-08-05T16:03:41.196Z,4.25
2022-08-05T16:06:11.404Z,4.45
2022-08-05T16:08:40.143Z,4.53
2022-08-05T16:11:11.337Z,5.00
2022-08-05T16:13:41.773Z,4.65
2022-08-05T16:16:11.940Z,4.70
2022-08-05T16:18:52.768Z,4.82
2022-08-05T16:22:00.160Z,4.90
2022-08-05T16:24:12.712Z,4.50
2022-08-05T16:27:00.302Z,4.55
2022-08-05T16:29:31.224Z,3.90
2022-08-05T16:32:06.572Z,3.72
2022-08-05T16:34:41.694Z,3.97
2022-08-05T16:38:01.915Z,3.45
2022-08-05T16:40:04.491Z,3.17
2022-08-05T16:42:36.312Z,2.90
2022-08-05T16:45:06.230Z,3.03
2022-08-05T16:47:55.461Z,2.70
2022-08-05T16:50:26.625Z,2.30
2022-08-05T16:52:56.386Z,2.10
2022-08-05T16:55:24.695Z,2.08
2022-08-05T16:58:01.254Z,2.08
2022-08-05T17:00:34.808Z,2.03
2022-08-05T17:03:03.697Z,1.50
2022-08-05T17:05:37.599Z,1.60
2022-08-05T17:08:05.966Z,1.67
2022-08-05T17:10:36.575Z,1.60
2022-08-05T17:13:16.972Z,1.70
2022-08-05T17:15:58.807Z,1.10
2022-08-05T17:18:37.292Z,1.30
2022-08-05T17:21:07.211Z,1.00
2022-08-05T17:24:05.450Z,1.15
2022-08-05T17:26:23.580Z,1.35
2022-08-05T17:28:52.895Z,0.90
2022-08-05T17:31:24.489Z,0.80
2022-08-05T17:34:08.853Z,0.82
2022-08-05T17:36:40.709Z,0.95
2022-08-05T17:39:23.902Z,0.98
2022-08-05T17:42:19.871Z,1.20
2022-08-05T17:44:50.357Z,1.13
2022-08-05T17:47:22.197Z,1.10
2022-08-05T17:49:52.281Z,1.05
2022-08-05T17:52:29.084Z,0.70
2022-08-05T17:54:57.077Z,1.30
2022-08-05T17:57:25.064Z,0.90
2022-08-05T18:00:05.472Z,1.00
2022-08-05T18:02:34.117Z,0.98
2022-08-05T18:05:06.476Z,1.10
2022-08-05T18:07:41.583Z,1.02
2022-08-05T18:10:14.060Z,1.30
2022-08-05T18:12:49.383Z,1.23
2022-08-05T18:15:18.994Z,1.10
2022-08-05T18:18:00.710Z,1.00
2022-08-05T18:20:32.283Z,1.10
2022-08-05T18:23:08.994Z,0.98
2022-08-05T18:25:38.982Z,0.90
2022-08-05T18:28:07.628Z,1.10
2022-08-05T18:30:39.080Z,1.30
2022-08-05T18:33:08.875Z,1.17
2022-08-05T18:36:01.293Z,1.20
2022-08-05T18:38:31.159Z,1.20
2022-08-05T18:41:55.476Z,1.83
2022-08-05T18:43:48.986Z,1.20
2022-08-05T18:46:19.720Z,1.27
2022-08-05T18:48:51.612Z,1.80
2022-08-05T18:52:05.293Z,1.10
2022-08-05T18:54:26.295Z,1.20
2022-08-05T18:56:57.209Z,1.40
2022-08-05T18:59:43.382Z,1.20
2022-08-05T19:02:26.592Z,1.45
2022-08-05T19:06:12.056Z,1.00
2022-08-05T19:08:00.282Z,1.05
2022-08-05T19:10:28.891Z,0.98
2022-08-05T19:12:57.229Z,1.00
2022-08-05T19:15:59.246Z,1.10
2022-08-05T19:18:22.293Z,1.38
2022-08-05T19:20:52.032Z,1.38
2022-08-05T19:24:03.843Z,1.10
2022-08-05T19:26:09.350Z,1.23
2022-08-05T19:28:41.574Z,1.40
2022-08-05T19:31:13.667Z,1.48
2022-08-05T19:33:48.279Z,1.30
2022-08-05T19:36:24.327Z,1.40
2022-08-05T19:38:52.478Z,1.00
2022-08-05T19:41:22.011Z,1.10
2022-08-05T19:44:13.848Z,1.27
2022-08-05T19:46:43.563Z,1.20
2022-08-05T19:49:16.877Z,1.10
2022-08-05T19:52:05.013Z,1.25
2022-08-05T19:54:35.004Z,1.20
2022-08-05T19:57:08.675Z,1.48
2022-08-05T19:59:56.151Z,1.13
2022-08-05T20:02:31.291Z,1.15
2022-08-05T20:05:00.967Z,1.20
2022-08-05T20:07:47.312Z,1.00
2022-08-05T20:10:17.112Z,1.63
2022-08-05T20:12:48.174Z,1.40
2022-08-05T20:15:22.928Z,1.13
2022-08-05T20:18:10.042Z,1.52
2022-08-05T20:20:44.246Z,1.73
2022-08-05T20:23:12.926Z,1.48
2022-08-05T20:25:41.073Z,1.30
2022-08-05T20:28:14.577Z,1.67
2022-08-05T20:30:42.651Z,1.50
2022-08-05T20:33:10.661Z,1.60
2022-08-05T20:35:40.593Z,1.60
2022-08-05T20:38:20.047Z,1.67
2022-08-05T20:40:56.413Z,1.70
2022-08-05T20:43:33.147Z,1.75
2022-08-05T20:46:18.633Z,1.60
2022-08-05T20:48:53.357Z,1.83
2022-08-05T20:51:24.078Z,1.33
2022-08-05T20:53:55.092Z,1.88
2022-08-05T20:56:29.704Z,1.70
2022-08-05T20:59:00.163Z,2.10
2022-08-05T21:01:39.447Z,1.70
2022-08-05T21:04:10.406Z,1.75
2022-08-05T21:06:45.531Z,1.60
2022-08-05T21:09:15.064Z,2.00
2022-08-05T21:12:10.586Z,1.90
2022-08-05T21:14:34.713Z,1.88
2022-08-05T21:17:04.980Z,1.60
2022-08-05T21:19:47.444Z,1.65
2022-08-05T21:22:21.865Z,2.05
2022-08-05T21:24:52.734Z,2.15
2022-08-05T21:27:25.146Z,1.60
2022-08-05T21:29:54.170Z,1.80
2022-08-05T21:32:24.409Z,2.20
2022-08-05T21:34:55.869Z,1.88
2022-08-05T21:37:41.067Z,2.17
2022-08-05T21:40:13.080Z,2.15
2022-08-05T21:42:45.330Z,1.80
2022-08-05T21:45:24.017Z,2.28
2022-08-05T21:47:57.653Z,2.08
2022-08-05T21:50:26.374Z,2.22
2022-08-05T21:52:59.032Z,2.00
2022-08-05T21:56:00.949Z,2.30
2022-08-05T21:58:28.837Z,2.38
2022-08-05T22:01:00.769Z,2.20
2022-08-05T22:03:48.946Z,2.00
2022-08-05T22:06:22.351Z,2.08
2022-08-05T22:08:53.064Z,2.08
2022-08-05T22:11:34.378Z,2.28
2022-08-05T22:14:05.924Z,2.03
2022-08-05T22:16:51.905Z,1.90
2022-08-05T22:20:00.541Z,1.73
2022-08-05T22:22:12.808Z,1.92
2022-08-05T22:25:17.697Z,1.75
2022-08-05T22:28:04.957Z,1.67
2022-08-05T22:30:56.462Z,1.70
2022-08-05T22:33:57.662Z,1.80
2022-08-05T22:36:15.221Z,1.88
2022-08-05T22:38:48.141Z,2.00
2022-08-05T22:41:26.504Z,2.30
2022-08-05T22:44:08.183Z,2.08
2022-08-05T22:46:39.487Z,2.42
2022-08-05T22:49:23.042Z,1.98
2022-08-05T22:52:04.842Z,1.80
2022-08-05T22:54:36.115Z,2.00
2022-08-05T22:57:05.786Z,1.27
2022-08-05T22:59:46.086Z,1.30
2022-08-05T23:02:17.369Z,1.38
2022-08-05T23:04:52.097Z,1.58
2022-08-05T23:07:21.987Z,0.98
2022-08-05T23:09:57.374Z,0.80
2022-08-05T23:12:32.483Z,1.27
2022-08-05T23:17:37.091Z,1.08
2022-08-05T23:20:10.206Z,0.80
2022-08-05T23:22:47.654Z,1.13
2022-08-05T23:25:50.296Z,0.80
2022-08-05T23:28:07.623Z,0.80
2022-08-05T23:30:40.153Z,0.75
2022-08-05T23:33:16.478Z,0.90
2022-08-05T23:35:51.029Z,0.80
2022-08-05T23:38:19.376Z,0.77
2022-08-05T23:40:49.395Z,1.00
2022-08-05T23:43:25.138Z,0.95
2022-08-05T23:46:21.011Z,0.73
2022-08-05T23:49:00.305Z,0.80
2022-08-05T23:51:55.010Z,0.85
2022-08-05T23:54:25.746Z,0.80
2022-08-05T23:56:55.923Z,0.77
2022-08-05T23:59:37.754Z,0.70
